Time;durP1;ratioP1;P1;durP2;ratioP2;P2;SDS_P1;SDS_P2;PMS_P1;PMS_P2;Temp;Humidity;BMP_temperature;BMP_pressure;BME280_temperature;BME280_humidity;BME280_pressure;Samples;Min_cycle;Max_cycle;Signal;HPM_P1;HPM_P2
2023/07/24 00:00:11;;;;;;;;;;;18.40;99.90;;;;;;6049102;23;20011;-69
2023/07/24 00:02:36;;;;;;;;;;;18.40;99.90;;;;;;6049368;23;19939;-69
2023/07/24 00:05:02;;;;;;;;;;;18.30;99.90;;;;;;6048841;23;19931;-69
2023/07/24 00:07:27;;;;;;;;;;;18.30;99.90;;;;;;6050465;23;19931;-69
2023/07/24 00:09:53;;;;;;;;;;;18.40;99.90;;;;;;6049268;23;20064;-69
2023/07/24 00:12:18;;;;;;;;;;;18.40;99.90;;;;;;6048735;23;20133;-69
2023/07/24 00:14:44;;;;;;;;;;;18.30;99.90;;;;;;6047037;23;20676;-69
2023/07/24 00:17:09;;;;;;;;;;;18.30;99.90;;;;;;6048781;23;19959;-69
2023/07/24 00:19:35;;;;;;;;;;;18.40;99.90;;;;;;6049315;23;19965;-69
2023/07/24 00:22:00;;;;;;;;;;;18.40;99.90;;;;;;6049295;23;19934;-69
2023/07/24 00:24:26;;;;;;;;;;;18.40;99.90;;;;;;6050662;23;20035;-69
2023/07/24 00:26:52;;;;;;;;;;;18.40;99.90;;;;;;6048844;23;20424;-69
2023/07/24 00:29:17;;;;;;;;;;;18.40;99.90;;;;;;6047698;23;20011;-69
2023/07/24 00:31:43;;;;;;;;;;;18.40;99.90;;;;;;6024981;23;20350;-69
2023/07/24 00:34:08;;;;;;;;;;;18.40;99.90;;;;;;6047886;23;19955;-69
2023/07/24 00:36:34;;;;;;;;;;;18.40;99.90;;;;;;6048964;23;19925;-69
2023/07/24 00:38:59;;;;;;;;;;;18.40;99.90;;;;;;6049756;23;19953;-69
2023/07/24 00:41:25;;;;;;;;;;;18.40;99.90;;;;;;6022913;23;20496;-67
2023/07/24 00:43:50;;;;;;;;;;;18.30;99.90;;;;;;6049779;23;19964;-67
2023/07/24 00:46:16;;;;;;;;;;;18.30;99.90;;;;;;6049227;23;19929;-67
2023/07/24 00:48:41;;;;;;;;;;;18.40;99.90;;;;;;6047657;23;19954;-68
2023/07/24 00:51:07;;;;;;;;;;;18.40;99.90;;;;;;6049803;23;20021;-67
2023/07/24 00:53:32;;;;;;;;;;;18.40;99.90;;;;;;6049781;23;20270;-68
2023/07/24 00:55:58;;;;;;;;;;;18.40;99.90;;;;;;6051026;23;19939;-68
2023/07/24 00:58:23;;;;;;;;;;;18.40;99.90;;;;;;6050766;23;19925;-68
2023/07/24 01:00:49;;;;;;;;;;;18.40;99.90;;;;;;6051506;23;19923;-67
2023/07/24 01:03:15;;;;;;;;;;;18.40;99.90;;;;;;6049784;23;19957;-68
2023/07/24 01:05:41;;;;;;;;;;;18.40;99.90;;;;;;6050312;23;19936;-67
2023/07/24 01:08:06;;;;;;;;;;;18.40;99.90;;;;;;6050352;23;19931;-68
2023/07/24 01:10:32;;;;;;;;;;;18.40;99.90;;;;;;6051712;23;19929;-68
2023/07/24 01:13:18;;;;;;;;;;;18.40;99.90;;;;;;6048681;23;19964;-67
2023/07/24 01:16:10;;;;;;;;;;;18.40;99.90;;;;;;6050596;23;20378;-68
2023/07/24 01:18:38;;;;;;;;;;;18.40;99.90;;;;;;6043146;23;19932;-67
2023/07/24 01:21:04;;;;;;;;;;;18.50;99.90;;;;;;6050604;23;19926;-67
2023/07/24 01:23:50;;;;;;;;;;;18.50;99.90;;;;;;6052505;23;19931;-67
2023/07/24 01:26:16;;;;;;;;;;;18.60;99.90;;;;;;6052609;23;19937;-68
2023/07/24 01:28:41;;;;;;;;;;;18.50;99.90;;;;;;6048010;23;19926;-68
2023/07/24 01:31:07;;;;;;;;;;;18.50;99.90;;;;;;6051424;23;20631;-68
2023/07/24 01:33:35;;;;;;;;;;;18.50;99.90;;;;;;6050443;23;20459;-68
2023/07/24 01:36:02;;;;;;;;;;;18.50;99.90;;;;;;6051036;23;19927;-68
2023/07/24 01:38:28;;;;;;;;;;;18.50;99.90;;;;;;6024241;23;20162;-68
2023/07/24 01:40:53;;;;;;;;;;;18.50;99.90;;;;;;6050284;23;19930;-68
2023/07/24 01:43:19;;;;;;;;;;;18.60;99.90;;;;;;6025444;23;19968;-68
2023/07/24 01:45:45;;;;;;;;;;;18.60;99.90;;;;;;6049093;23;19929;-68
2023/07/24 01:48:10;;;;;;;;;;;18.60;99.90;;;;;;6051199;23;20033;-68
2023/07/24 01:50:36;;;;;;;;;;;18.60;99.90;;;;;;6050621;23;19929;-68
2023/07/24 01:53:01;;;;;;;;;;;18.60;99.90;;;;;;6050795;23;20312;-67
2023/07/24 01:55:27;;;;;;;;;;;18.60;99.90;;;;;;6049884;23;19932;-67
2023/07/24 01:57:52;;;;;;;;;;;18.60;99.90;;;;;;6048923;23;19947;-68
2023/07/24 02:00:18;;;;;;;;;;;18.60;99.90;;;;;;6051122;23;19963;-68
2023/07/24 02:02:43;;;;;;;;;;;18.70;99.90;;;;;;6051405;23;20397;-67
2023/07/24 02:05:09;;;;;;;;;;;18.70;99.90;;;;;;6048554;23;20579;-68
2023/07/24 02:07:34;;;;;;;;;;;18.70;99.90;;;;;;6052010;23;20008;-68
2023/07/24 02:10:00;;;;;;;;;;;18.70;99.90;;;;;;6048280;23;19931;-68
2023/07/24 02:12:25;;;;;;;;;;;18.70;99.90;;;;;;6049881;23;19991;-69
2023/07/24 02:14:51;;;;;;;;;;;18.70;99.90;;;;;;6049219;23;20300;-69
2023/07/24 02:17:17;;;;;;;;;;;18.70;99.90;;;;;;6049043;23;19979;-69
2023/07/24 02:19:42;;;;;;;;;;;18.70;99.90;;;;;;6050451;23;19935;-69
2023/07/24 02:22:08;;;;;;;;;;;18.70;99.90;;;;;;6051532;23;19934;-69
2023/07/24 02:24:33;;;;;;;;;;;18.70;99.90;;;;;;6050763;23;19921;-69
2023/07/24 02:27:00;;;;;;;;;;;18.60;99.90;;;;;;6048607;23;19998;-69
2023/07/24 02:29:25;;;;;;;;;;;18.60;99.90;;;;;;6047171;23;19994;-69
2023/07/24 02:31:53;;;;;;;;;;;18.60;99.90;;;;;;6053976;23;19926;-69
2023/07/24 02:34:18;;;;;;;;;;;18.60;99.90;;;;;;6054736;23;20111;-69
2023/07/24 02:36:44;;;;;;;;;;;18.60;99.90;;;;;;6053039;23;20780;-69
2023/07/24 02:39:09;;;;;;;;;;;18.60;99.90;;;;;;6053636;23;19929;-69
2023/07/24 02:41:35;;;;;;;;;;;18.60;99.90;;;;;;6053215;23;19930;-69
2023/07/24 02:44:02;;;;;;;;;;;18.60;99.90;;;;;;6052734;23;20064;-69
2023/07/24 02:46:29;;;;;;;;;;;18.50;99.90;;;;;;6051247;23;19968;-69
2023/07/24 02:48:54;;;;;;;;;;;18.50;99.90;;;;;;6053781;23;20375;-69
2023/07/24 02:51:20;;;;;;;;;;;18.50;99.90;;;;;;6050352;23;19928;-69
2023/07/24 02:53:45;;;;;;;;;;;18.50;99.90;;;;;;6054794;23;19950;-69
2023/07/24 02:56:11;;;;;;;;;;;18.50;99.90;;;;;;6054599;23;19930;-69
2023/07/24 02:58:36;;;;;;;;;;;18.50;99.90;;;;;;6052511;23;19929;-69
2023/07/24 03:01:02;;;;;;;;;;;18.60;99.90;;;;;;6027593;23;19951;-69
2023/07/24 03:03:28;;;;;;;;;;;18.60;99.90;;;;;;6055066;23;20351;-69
2023/07/24 03:05:53;;;;;;;;;;;18.50;99.90;;;;;;6053792;23;20031;-68
2023/07/24 03:08:19;;;;;;;;;;;18.50;99.90;;;;;;6054071;23;19925;-69
2023/07/24 03:10:44;;;;;;;;;;;18.50;99.90;;;;;;6049368;23;20029;-69
2023/07/24 03:13:10;;;;;;;;;;;18.50;99.90;;;;;;6054351;23;19957;-69
2023/07/24 03:15:35;;;;;;;;;;;18.40;99.90;;;;;;6052266;23;19939;-68
2023/07/24 03:18:01;;;;;;;;;;;18.30;99.90;;;;;;6053320;23;20384;-69
2023/07/24 03:20:26;;;;;;;;;;;18.30;99.90;;;;;;6051339;23;19976;-69
2023/07/24 03:22:52;;;;;;;;;;;18.30;99.90;;;;;;6028338;23;19951;-69
2023/07/24 03:25:17;;;;;;;;;;;18.30;99.90;;;;;;6052846;23;20371;-69
2023/07/24 03:27:43;;;;;;;;;;;18.30;99.90;;;;;;6052112;23;19927;-69
2023/07/24 03:30:08;;;;;;;;;;;18.20;99.90;;;;;;6026720;23;19939;-69
2023/07/24 03:32:35;;;;;;;;;;;18.20;99.90;;;;;;6050921;23;20004;-68
2023/07/24 03:35:01;;;;;;;;;;;18.20;99.90;;;;;;6052630;23;20029;-69
2023/07/24 03:37:26;;;;;;;;;;;18.20;99.90;;;;;;6054175;23;20426;-69
2023/07/24 03:39:52;;;;;;;;;;;18.20;99.90;;;;;;6052642;23;19933;-69
2023/07/24 03:42:26;;;;;;;;;;;18.20;99.90;;;;;;6055687;23;19929;-69
2023/07/24 03:44:51;;;;;;;;;;;18.20;99.90;;;;;;6052978;23;19967;-69
2023/07/24 03:47:17;;;;;;;;;;;18.30;99.90;;;;;;6029056;23;19934;-70
2023/07/24 03:49:42;;;;;;;;;;;18.30;99.90;;;;;;6054893;23;19932;-69
2023/07/24 03:52:08;;;;;;;;;;;18.30;99.90;;;;;;6052706;23;19953;-69
2023/07/24 03:54:33;;;;;;;;;;;18.20;99.90;;;;;;6055304;23;20014;-69
2023/07/24 03:56:59;;;;;;;;;;;18.20;99.90;;;;;;6054557;23;19937;-69
2023/07/24 03:59:24;;;;;;;;;;;18.20;99.90;;;;;;6053788;23;19964;-69
2023/07/24 04:01:50;;;;;;;;;;;18.20;99.90;;;;;;6053385;23;19922;-68
2023/07/24 04:04:15;;;;;;;;;;;18.30;99.90;;;;;;6052699;23;19930;-67
2023/07/24 04:06:41;;;;;;;;;;;18.30;99.90;;;;;;6048174;23;19948;-68
2023/07/24 04:09:06;;;;;;;;;;;18.30;99.90;;;;;;6053363;23;19935;-67
2023/07/24 04:11:32;;;;;;;;;;;18.40;99.90;;;;;;6053126;23;20018;-68
2023/07/24 04:13:57;;;;;;;;;;;18.50;99.90;;;;;;6052988;23;20729;-68
2023/07/24 04:16:23;;;;;;;;;;;18.50;99.90;;;;;;6051793;23;20040;-68
2023/07/24 04:18:48;;;;;;;;;;;18.60;99.90;;;;;;6051471;23;19990;-68
2023/07/24 04:21:14;;;;;;;;;;;18.60;99.90;;;;;;6051259;23;20317;-67
2023/07/24 04:23:39;;;;;;;;;;;18.70;99.90;;;;;;6052165;23;19937;-68
2023/07/24 04:26:05;;;;;;;;;;;18.70;99.90;;;;;;6053049;23;19927;-67
2023/07/24 04:28:30;;;;;;;;;;;18.90;99.90;;;;;;6054450;23;19984;-67
2023/07/24 04:30:59;;;;;;;;;;;19.00;99.90;;;;;;6052329;23;19937;-67
2023/07/24 04:33:27;;;;;;;;;;;19.10;99.90;;;;;;6055057;23;20358;-67
2023/07/24 04:35:53;;;;;;;;;;;19.10;99.90;;;;;;6053632;23;19925;-68
2023/07/24 04:38:19;;;;;;;;;;;19.20;99.90;;;;;;6054646;23;19920;-67
2023/07/24 04:40:45;;;;;;;;;;;19.30;99.90;;;;;;6052946;23;20260;-69
2023/07/24 04:43:10;;;;;;;;;;;19.40;99.90;;;;;;6053639;23;19953;-68
2023/07/24 04:45:36;;;;;;;;;;;19.50;99.90;;;;;;6055412;23;19933;-69
2023/07/24 04:48:01;;;;;;;;;;;19.50;99.90;;;;;;6053550;23;19927;-69
2023/07/24 04:50:27;;;;;;;;;;;19.60;99.90;;;;;;6057035;23;20351;-69
2023/07/24 04:52:52;;;;;;;;;;;19.70;99.90;;;;;;6055841;23;20272;-69
2023/07/24 04:55:18;;;;;;;;;;;19.80;99.90;;;;;;6056774;23;19933;-69
2023/07/24 04:57:43;;;;;;;;;;;19.90;99.90;;;;;;6056499;23;19948;-69
2023/07/24 05:00:09;;;;;;;;;;;20.10;99.90;;;;;;6053139;23;19923;-69
2023/07/24 05:02:34;;;;;;;;;;;20.10;99.90;;;;;;6057685;23;20006;-69
2023/07/24 05:05:00;;;;;;;;;;;20.20;99.90;;;;;;6055418;23;20506;-69
2023/07/24 05:07:25;;;;;;;;;;;20.30;99.90;;;;;;6056268;23;19928;-69
2023/07/24 05:09:51;;;;;;;;;;;20.50;99.90;;;;;;6054457;23;19935;-69
2023/07/24 05:12:16;;;;;;;;;;;20.60;99.90;;;;;;6053161;23;19940;-69
2023/07/24 05:14:42;;;;;;;;;;;20.70;99.90;;;;;;6028495;23;20307;-69
2023/07/24 05:17:07;;;;;;;;;;;20.80;99.90;;;;;;6053941;23;19980;-69
2023/07/24 05:19:33;;;;;;;;;;;20.90;99.90;;;;;;6056243;23;19980;-69
2023/07/24 05:21:59;;;;;;;;;;;21.00;99.90;;;;;;6054649;23;19927;-69
2023/07/24 05:24:24;;;;;;;;;;;21.10;99.90;;;;;;6055399;23;19936;-69
2023/07/24 05:26:50;;;;;;;;;;;21.10;99.90;;;;;;6054888;23;20305;-69
2023/07/24 05:29:15;;;;;;;;;;;21.30;99.90;;;;;;6053114;23;20469;-69
2023/07/24 05:31:41;;;;;;;;;;;21.40;99.90;;;;;;6055860;23;20002;-69
2023/07/24 05:34:07;;;;;;;;;;;21.50;99.90;;;;;;6053730;23;20354;-69
2023/07/24 05:36:32;;;;;;;;;;;21.60;99.90;;;;;;6052638;23;19992;-69
2023/07/24 05:38:58;;;;;;;;;;;21.70;99.90;;;;;;6050717;23;19936;-69
2023/07/24 05:41:23;;;;;;;;;;;21.80;99.90;;;;;;6055636;23;19926;-69
2023/07/24 05:43:50;;;;;;;;;;;22.00;99.90;;;;;;6052904;23;20324;-69
2023/07/24 05:46:15;;;;;;;;;;;22.10;99.90;;;;;;6055380;23;20116;-69
2023/07/24 05:48:41;;;;;;;;;;;22.10;99.90;;;;;;6056362;23;20410;-69
2023/07/24 05:51:06;;;;;;;;;;;22.20;99.90;;;;;;6055177;23;19927;-69
2023/07/24 05:53:32;;;;;;;;;;;22.30;99.90;;;;;;6056882;23;19961;-70
2023/07/24 05:56:01;;;;;;;;;;;22.40;99.90;;;;;;6029424;23;19985;-70
2023/07/24 05:58:27;;;;;;;;;;;22.40;99.90;;;;;;6056507;23;19932;-70
2023/07/24 06:00:52;;;;;;;;;;;22.50;99.90;;;;;;6051997;23;19936;-70
2023/07/24 06:03:18;;;;;;;;;;;22.60;99.90;;;;;;6055857;23;20000;-69
2023/07/24 06:05:43;;;;;;;;;;;22.80;99.90;;;;;;6053019;23;19942;-70
2023/07/24 06:08:10;;;;;;;;;;;22.90;99.90;;;;;;6053986;23;19985;-69
2023/07/24 06:10:36;;;;;;;;;;;23.00;99.90;;;;;;6055410;23;19977;-70
2023/07/24 06:13:01;;;;;;;;;;;23.10;99.90;;;;;;6056934;23;19948;-66
2023/07/24 06:15:27;;;;;;;;;;;23.20;99.90;;;;;;6055235;23;20664;-67
2023/07/24 06:17:52;;;;;;;;;;;23.20;99.90;;;;;;6056379;23;19928;-67
2023/07/24 06:20:18;;;;;;;;;;;23.30;99.90;;;;;;6055645;23;19924;-66
2023/07/24 06:22:43;;;;;;;;;;;23.40;99.90;;;;;;6054510;23;19928;-67
2023/07/24 06:25:09;;;;;;;;;;;23.60;99.90;;;;;;6054542;23;19920;-67
2023/07/24 06:27:35;;;;;;;;;;;23.60;99.90;;;;;;6055965;23;20659;-67
2023/07/24 06:30:00;;;;;;;;;;;23.70;99.90;;;;;;6054792;23;19940;-66
2023/07/24 06:32:26;;;;;;;;;;;23.80;99.90;;;;;;6054379;23;20018;-66
2023/07/24 06:34:51;;;;;;;;;;;23.80;99.90;;;;;;6055278;23;19940;-67
2023/07/24 06:37:17;;;;;;;;;;;23.80;99.90;;;;;;6054647;23;20386;-66
2023/07/24 06:39:43;;;;;;;;;;;23.90;99.90;;;;;;6055024;23;20001;-67
2023/07/24 06:42:09;;;;;;;;;;;23.90;99.90;;;;;;6027365;23;19929;-65
2023/07/24 06:44:34;;;;;;;;;;;24.00;99.90;;;;;;6055236;23;20042;-66
2023/07/24 06:47:00;;;;;;;;;;;24.20;99.90;;;;;;6055147;23;20472;-67
2023/07/24 06:49:25;;;;;;;;;;;24.40;99.90;;;;;;6054552;23;19928;-67
2023/07/24 06:51:51;;;;;;;;;;;24.60;99.90;;;;;;6055296;23;20006;-67
2023/07/24 06:54:16;;;;;;;;;;;24.70;99.90;;;;;;6056747;23;20411;-66
2023/07/24 06:56:42;;;;;;;;;;;24.80;99.90;;;;;;6056911;23;19984;-67
2023/07/24 06:59:07;;;;;;;;;;;24.80;99.90;;;;;;6054760;23;20351;-67
2023/07/24 07:01:33;;;;;;;;;;;24.90;99.90;;;;;;6054069;23;19956;-67
2023/07/24 07:03:58;;;;;;;;;;;25.00;99.90;;;;;;6056758;23;19928;-67
2023/07/24 07:06:24;;;;;;;;;;;24.90;99.90;;;;;;6054530;23;19951;-65
2023/07/24 07:08:49;;;;;;;;;;;25.10;99.90;;;;;;6055768;23;20313;-65
2023/07/24 07:11:15;;;;;;;;;;;25.30;99.90;;;;;;6028444;23;19937;-66
2023/07/24 07:13:40;;;;;;;;;;;25.40;99.90;;;;;;6055874;23;19960;-65
2023/07/24 07:16:06;;;;;;;;;;;25.50;99.90;;;;;;6055452;23;20017;-66
2023/07/24 07:18:31;;;;;;;;;;;25.70;99.90;;;;;;6052399;23;20340;-65
2023/07/24 07:20:57;;;;;;;;;;;25.70;99.90;;;;;;6053513;23;20521;-65
2023/07/24 07:23:22;;;;;;;;;;;25.80;99.90;;;;;;6056060;23;19927;-65
2023/07/24 07:25:49;;;;;;;;;;;25.90;99.90;;;;;;6055009;23;19937;-65
2023/07/24 07:28:15;;;;;;;;;;;25.90;99.90;;;;;;6053375;23;19956;-66
2023/07/24 07:30:41;;;;;;;;;;;26.00;99.90;;;;;;6050640;23;19931;-66
2023/07/24 07:33:07;;;;;;;;;;;26.00;99.90;;;;;;6055186;23;19954;-65
2023/07/24 07:35:32;;;;;;;;;;;26.00;99.90;;;;;;6051360;23;20005;-65
2023/07/24 07:37:58;;;;;;;;;;;26.20;99.90;;;;;;6052498;23;19932;-65
2023/07/24 07:40:24;;;;;;;;;;;26.30;99.90;;;;;;6053736;23;20047;-65
2023/07/24 07:42:49;;;;;;;;;;;26.40;99.90;;;;;;6055070;23;19922;-65
2023/07/24 07:45:15;;;;;;;;;;;26.40;99.90;;;;;;6053374;23;19944;-67
2023/07/24 07:47:40;;;;;;;;;;;26.40;99.90;;;;;;6055121;23;19926;-67
2023/07/24 07:50:06;;;;;;;;;;;26.40;99.90;;;;;;6052943;23;20030;-67
2023/07/24 07:52:32;;;;;;;;;;;26.50;99.90;;;;;;6051853;23;20366;-67
2023/07/24 07:54:57;;;;;;;;;;;26.40;99.90;;;;;;6054336;23;19993;-67
2023/07/24 07:57:22;;;;;;;;;;;26.40;99.90;;;;;;6052635;23;19933;-68
2023/07/24 07:59:48;;;;;;;;;;;26.60;99.90;;;;;;6054419;23;19933;-67
2023/07/24 08:02:13;;;;;;;;;;;26.70;99.90;;;;;;6053897;23;19919;-67
2023/07/24 08:04:39;;;;;;;;;;;26.80;99.90;;;;;;6053044;23;19928;-68
2023/07/24 08:07:04;;;;;;;;;;;26.90;99.90;;;;;;6055290;23;19955;-67
2023/07/24 08:09:30;;;;;;;;;;;27.00;99.90;;;;;;6053697;23;20579;-67
2023/07/24 08:11:55;;;;;;;;;;;26.90;99.90;;;;;;6055373;23;19924;-67
2023/07/24 08:14:21;;;;;;;;;;;26.70;99.90;;;;;;6054269;23;19935;-68
2023/07/24 08:16:50;;;;;;;;;;;26.80;99.90;;;;;;6053959;23;19926;-67
2023/07/24 08:19:15;;;;;;;;;;;27.00;99.90;;;;;;6055812;23;19929;-67
2023/07/24 08:21:41;;;;;;;;;;;27.10;99.90;;;;;;6055005;23;20031;-66
2023/07/24 08:24:07;;;;;;;;;;;27.10;99.90;;;;;;6055725;23;19967;-66
2023/07/24 08:26:32;;;;;;;;;;;27.10;99.90;;;;;;6052585;23;19926;-65
2023/07/24 08:28:58;;;;;;;;;;;27.00;99.90;;;;;;6053504;23;19927;-66
2023/07/24 08:31:23;;;;;;;;;;;27.10;99.90;;;;;;6054862;23;20261;-66
2023/07/24 08:33:49;;;;;;;;;;;27.10;99.90;;;;;;6052822;23;19960;-65
2023/07/24 08:36:15;;;;;;;;;;;27.10;99.90;;;;;;6050550;23;19926;-65
2023/07/24 08:38:42;;;;;;;;;;;27.20;99.90;;;;;;6030482;23;19992;-65
2023/07/24 08:41:08;;;;;;;;;;;27.10;99.90;;;;;;6027804;23;19948;-65
2023/07/24 08:43:34;;;;;;;;;;;27.10;99.90;;;;;;6053241;23;19957;-66
2023/07/24 08:46:00;;;;;;;;;;;27.20;99.90;;;;;;6028617;23;19933;-66
2023/07/24 08:48:35;;;;;;;;;;;27.30;99.90;;;;;;6055006;23;19933;-66
2023/07/24 08:51:11;;;;;;;;;;;27.30;99.90;;;;;;6054656;23;19963;-66
2023/07/24 08:53:38;;;;;;;;;;;27.30;99.90;;;;;;6054183;23;19951;-66
2023/07/24 08:56:04;;;;;;;;;;;27.40;99.90;;;;;;6054336;23;19921;-66
2023/07/24 08:58:29;;;;;;;;;;;27.50;99.90;;;;;;6051882;23;20426;-66
2023/07/24 09:00:58;;;;;;;;;;;27.50;99.90;;;;;;6027831;23;19928;-66
2023/07/24 09:03:24;;;;;;;;;;;27.60;99.90;;;;;;6052695;23;19924;-66
2023/07/24 09:05:50;;;;;;;;;;;27.60;99.90;;;;;;6053709;23;20081;-66
2023/07/24 09:08:15;;;;;;;;;;;27.70;99.90;;;;;;6053801;23;19924;-66
2023/07/24 09:10:41;;;;;;;;;;;27.80;99.90;;;;;;6053723;23;20256;-66
2023/07/24 09:13:07;;;;;;;;;;;27.80;99.90;;;;;;6054758;23;19947;-66
2023/07/24 09:15:42;;;;;;;;;;;27.90;99.90;;;;;;6054745;23;19926;-66
2023/07/24 09:18:08;;;;;;;;;;;28.00;99.90;;;;;;6057026;23;20298;-66
2023/07/24 09:20:38;;;;;;;;;;;28.00;99.90;;;;;;6057039;23;20562;-66
2023/07/24 09:23:03;;;;;;;;;;;28.00;99.90;;;;;;6031126;23;19930;-66
2023/07/24 09:25:30;;;;;;;;;;;28.10;99.90;;;;;;6055217;23;20696;-66
2023/07/24 09:27:57;;;;;;;;;;;28.10;99.90;;;;;;6055403;23;19931;-66
2023/07/24 09:30:23;;;;;;;;;;;28.20;99.90;;;;;;6028339;23;20564;-66
2023/07/24 09:32:55;;;;;;;;;;;28.30;99.90;;;;;;6055224;23;19998;-66
2023/07/24 09:35:27;;;;;;;;;;;28.20;99.90;;;;;;6051476;23;19985;-67
2023/07/24 09:38:01;;;;;;;;;;;28.20;99.90;;;;;;6054195;23;19924;-66
2023/07/24 09:40:27;;;;;;;;;;;28.20;99.90;;;;;;6056251;23;19929;-66
2023/07/24 09:42:52;;;;;;;;;;;28.10;99.90;;;;;;6053640;23;19940;-67
2023/07/24 09:45:18;;;;;;;;;;;28.10;99.90;;;;;;6055500;23;20115;-66
2023/07/24 09:47:44;;;;;;;;;;;28.20;99.90;;;;;;6055070;23;19934;-67
2023/07/24 09:50:10;;;;;;;;;;;28.20;99.90;;;;;;6051511;23;19928;-67
2023/07/24 09:52:36;;;;;;;;;;;28.30;99.90;;;;;;6054271;23;19943;-69
2023/07/24 09:55:07;;;;;;;;;;;28.40;99.90;;;;;;6053339;23;19963;-69
2023/07/24 09:57:34;;;;;;;;;;;28.40;99.90;;;;;;6052858;23;19935;-69
2023/07/24 10:00:00;;;;;;;;;;;28.60;99.90;;;;;;6054843;23;20303;-69
2023/07/24 10:02:27;;;;;;;;;;;28.70;99.90;;;;;;6054842;23;19923;-69
2023/07/24 10:04:53;;;;;;;;;;;28.80;99.90;;;;;;6052729;23;19933;-69
2023/07/24 10:07:21;;;;;;;;;;;28.70;99.90;;;;;;6054629;23;19937;-69
2023/07/24 10:09:47;;;;;;;;;;;28.70;99.90;;;;;;6055029;23;19929;-68
2023/07/24 10:12:13;;;;;;;;;;;28.70;99.90;;;;;;6054438;23;20067;-68
2023/07/24 10:14:38;;;;;;;;;;;28.70;99.90;;;;;;6049897;23;19970;-69
2023/07/24 10:17:04;;;;;;;;;;;28.90;99.90;;;;;;6053852;23;19937;-68
2023/07/24 10:19:37;;;;;;;;;;;29.00;99.90;;;;;;6054895;23;19949;-68
2023/07/24 10:22:03;;;;;;;;;;;29.00;99.90;;;;;;6053819;23;19924;-67
2023/07/24 10:24:29;;;;;;;;;;;29.00;99.90;;;;;;6054353;23;19932;-68
2023/07/24 10:26:55;;;;;;;;;;;29.00;99.90;;;;;;6051519;23;20053;-68
2023/07/24 10:29:23;;;;;;;;;;;29.00;99.90;;;;;;6051957;23;20007;-68
2023/07/24 10:31:52;;;;;;;;;;;29.00;99.90;;;;;;6048810;23;20025;-68
2023/07/24 10:34:19;;;;;;;;;;;28.90;99.90;;;;;;6049945;23;20575;-68
2023/07/24 10:36:45;;;;;;;;;;;29.00;99.90;;;;;;6052542;23;19929;-68
2023/07/24 10:39:15;;;;;;;;;;;29.20;99.90;;;;;;6055187;23;19921;-68
2023/07/24 10:41:40;;;;;;;;;;;29.30;99.90;;;;;;6053996;23;19937;-68
2023/07/24 10:44:06;;;;;;;;;;;29.50;99.90;;;;;;6049531;23;20204;-67
2023/07/24 10:46:51;;;;;;;;;;;29.40;99.90;;;;;;6054583;23;19929;-66
2023/07/24 10:49:21;;;;;;;;;;;29.40;99.90;;;;;;6052806;23;19944;-66
2023/07/24 10:51:46;;;;;;;;;;;29.40;99.90;;;;;;6027237;23;20173;-67
2023/07/24 10:54:12;;;;;;;;;;;29.40;99.90;;;;;;6055759;23;20375;-66
2023/07/24 10:56:37;;;;;;;;;;;29.50;99.90;;;;;;6054946;23;19979;-66
2023/07/24 10:59:04;;;;;;;;;;;29.60;99.90;;;;;;6053590;23;19927;-66
2023/07/24 11:01:31;;;;;;;;;;;29.50;99.90;;;;;;6054331;23;19917;-66
2023/07/24 11:03:56;;;;;;;;;;;29.50;99.90;;;;;;6056042;23;20402;-67
2023/07/24 11:06:22;;;;;;;;;;;29.40;99.90;;;;;;6054773;23;19996;-67
2023/07/24 11:08:52;;;;;;;;;;;29.40;99.90;;;;;;6053488;23;20372;-66
2023/07/24 11:11:17;;;;;;;;;;;29.40;99.90;;;;;;6055697;23;19928;-66
2023/07/24 11:13:43;;;;;;;;;;;29.40;99.90;;;;;;6052599;23;19959;-66
2023/07/24 11:16:08;;;;;;;;;;;29.30;99.90;;;;;;6055067;23;20751;-67
2023/07/24 11:18:44;;;;;;;;;;;29.30;99.90;;;;;;6055525;23;19927;-67
2023/07/24 11:21:11;;;;;;;;;;;29.30;99.90;;;;;;6054685;23;20032;-67
2023/07/24 11:23:37;;;;;;;;;;;29.30;99.90;;;;;;6052438;23;19927;-67
2023/07/24 11:26:05;;;;;;;;;;;29.30;99.90;;;;;;6053693;23;20401;-68
2023/07/24 11:28:38;;;;;;;;;;;29.30;99.90;;;;;;6054921;23;19952;-68
2023/07/24 11:31:04;;;;;;;;;;;29.30;99.90;;;;;;6054016;23;19924;-68
2023/07/24 11:33:29;;;;;;;;;;;29.30;99.90;;;;;;6055284;23;20258;-68
2023/07/24 11:35:55;;;;;;;;;;;29.30;99.90;;;;;;6051421;23;20744;-68
2023/07/24 11:38:20;;;;;;;;;;;29.40;99.90;;;;;;6054144;23;20031;-68
2023/07/24 11:40:46;;;;;;;;;;;29.50;99.90;;;;;;6054858;23;19936;-69
2023/07/24 11:43:19;;;;;;;;;;;29.60;99.90;;;;;;6054731;23;20526;-68
2023/07/24 11:45:44;;;;;;;;;;;29.70;99.90;;;;;;6051690;23;19929;-68
2023/07/24 11:48:11;;;;;;;;;;;29.70;99.90;;;;;;6053602;23;19936;-69
2023/07/24 11:50:43;;;;;;;;;;;29.80;99.90;;;;;;6046419;23;19963;-69
2023/07/24 11:53:18;;;;;;;;;;;29.80;99.90;;;;;;6050585;23;19956;-69
2023/07/24 11:55:44;;;;;;;;;;;29.90;99.90;;;;;;6050352;23;19924;-69
2023/07/24 11:58:14;;;;;;;;;;;30.10;99.90;;;;;;6053278;23;20220;-69
2023/07/24 12:00:39;;;;;;;;;;;30.10;99.90;;;;;;6054387;23;19935;-67
2023/07/24 12:03:05;;;;;;;;;;;30.10;99.90;;;;;;6053098;23;19926;-66
2023/07/24 12:05:37;;;;;;;;;;;30.20;99.90;;;;;;6051833;23;19931;-67
2023/07/24 12:08:02;;;;;;;;;;;30.30;99.90;;;;;;6050084;23;19924;-67
2023/07/24 12:10:28;;;;;;;;;;;30.30;99.90;;;;;;6023976;23;19962;-67
2023/07/24 12:12:54;;;;;;;;;;;30.30;99.90;;;;;;6049650;23;20329;-67
2023/07/24 12:15:20;;;;;;;;;;;30.30;99.90;;;;;;6026294;23;19986;-67
2023/07/24 12:17:45;;;;;;;;;;;30.30;99.90;;;;;;6050215;23;20009;-68
2023/07/24 12:20:11;;;;;;;;;;;30.30;99.90;;;;;;6025236;23;20364;-70
2023/07/24 12:22:37;;;;;;;;;;;30.20;99.90;;;;;;6049417;23;19928;-70
2023/07/24 12:25:03;;;;;;;;;;;30.20;99.90;;;;;;6049844;23;19929;-70
2023/07/24 12:27:29;;;;;;;;;;;30.30;99.90;;;;;;6050148;23;19927;-69
2023/07/24 12:29:54;;;;;;;;;;;30.30;99.90;;;;;;6046640;23;20113;-70
2023/07/24 12:32:21;;;;;;;;;;;30.40;99.90;;;;;;6050857;23;19960;-70
2023/07/24 12:34:46;;;;;;;;;;;30.50;99.90;;;;;;6046002;23;19951;-70
2023/07/24 12:37:12;;;;;;;;;;;30.70;99.60;;;;;;6050899;23;19924;-67
2023/07/24 12:39:37;;;;;;;;;;;30.60;99.40;;;;;;6054619;23;19934;-68
2023/07/24 12:42:04;;;;;;;;;;;30.60;98.00;;;;;;6051944;23;19929;-67
2023/07/24 12:44:29;;;;;;;;;;;30.60;96.90;;;;;;6050959;23;20380;-67
2023/07/24 12:46:55;;;;;;;;;;;30.50;96.60;;;;;;6027439;23;19960;-66
2023/07/24 12:49:20;;;;;;;;;;;30.50;97.00;;;;;;6054960;23;19959;-66
2023/07/24 12:51:46;;;;;;;;;;;30.50;95.80;;;;;;6055320;23;20405;-66
2023/07/24 12:54:11;;;;;;;;;;;30.40;96.30;;;;;;6053850;23;19950;-66
2023/07/24 12:56:37;;;;;;;;;;;30.40;96.10;;;;;;6051180;23;20346;-66
2023/07/24 12:59:03;;;;;;;;;;;30.30;96.40;;;;;;6054951;23;19925;-66
2023/07/24 13:01:29;;;;;;;;;;;30.40;95.90;;;;;;6054101;23;19961;-67
2023/07/24 13:03:54;;;;;;;;;;;30.40;95.80;;;;;;6055167;23;19980;-67
2023/07/24 13:06:20;;;;;;;;;;;30.40;96.40;;;;;;6054979;23;19996;-66
2023/07/24 13:08:46;;;;;;;;;;;30.50;96.20;;;;;;6052707;23;19926;-66
2023/07/24 13:11:11;;;;;;;;;;;30.60;95.00;;;;;;6053143;23;19926;-67
2023/07/24 13:13:37;;;;;;;;;;;30.70;95.80;;;;;;6053699;23;19990;-67
2023/07/24 13:16:02;;;;;;;;;;;30.80;94.80;;;;;;6054627;23;20021;-71
2023/07/24 13:18:29;;;;;;;;;;;30.90;95.30;;;;;;6056313;23;19926;-71
2023/07/24 13:20:54;;;;;;;;;;;31.00;94.50;;;;;;6053003;23;19928;-72
2023/07/24 13:23:20;;;;;;;;;;;30.90;94.10;;;;;;6046735;23;20437;-72
2023/07/24 13:25:45;;;;;;;;;;;31.00;94.70;;;;;;6023313;23;19957;-71
2023/07/24 13:28:11;;;;;;;;;;;31.20;93.70;;;;;;6023251;23;20000;-71
2023/07/24 13:30:37;;;;;;;;;;;31.20;92.70;;;;;;6020875;23;19963;-71
2023/07/24 13:33:02;;;;;;;;;;;31.30;92.70;;;;;;6019851;23;20067;-71
2023/07/24 13:35:28;;;;;;;;;;;31.40;92.30;;;;;;6021826;23;19951;-72
2023/07/24 13:37:53;;;;;;;;;;;31.50;91.30;;;;;;6021989;23;20233;-72
2023/07/24 13:40:19;;;;;;;;;;;31.50;91.30;;;;;;5997835;23;19928;-70
2023/07/24 13:42:44;;;;;;;;;;;31.50;91.00;;;;;;6021694;23;19959;-70
2023/07/24 13:45:10;;;;;;;;;;;31.50;89.30;;;;;;6024006;23;20543;-70
2023/07/24 13:47:35;;;;;;;;;;;31.50;91.50;;;;;;6023036;23;20577;-69
2023/07/24 13:50:03;;;;;;;;;;;31.60;89.90;;;;;;6026369;23;20009;-69
2023/07/24 13:52:31;;;;;;;;;;;31.60;88.90;;;;;;6022148;23;19951;-69
2023/07/24 13:54:56;;;;;;;;;;;31.60;89.70;;;;;;6026309;23;20570;-68
2023/07/24 13:57:23;;;;;;;;;;;31.60;90.20;;;;;;6023711;23;19933;-69
2023/07/24 13:59:48;;;;;;;;;;;31.80;90.60;;;;;;6023009;23;20395;-68
2023/07/24 14:02:14;;;;;;;;;;;31.90;88.80;;;;;;6025191;23;19929;-67
2023/07/24 14:04:40;;;;;;;;;;;31.90;90.70;;;;;;6024234;23;19933;-69
2023/07/24 14:07:06;;;;;;;;;;;31.90;90.00;;;;;;6025944;23;19924;-68
2023/07/24 14:09:32;;;;;;;;;;;31.90;90.70;;;;;;6024601;23;19927;-69